Flight Track Log - Related Links

Times and Time Zones

All times are in EDT time to prevent confusion due to time zone crossing. See the AAY843 flight status page for this flight to view local times or setup timezone preferences in your user account.

Time Position Orientation Groundspeed Altitude Reporting Facility
EDT Latitude Longitude Course Direction KTS MPH feet Rate Location/Type
Sun 10:27:13 AM 43.1081 -76.1422 264° West 170 196 1,400  Level Boston Center
Sun 10:27:37 AM 43.1064 -76.1650 264° West 165 190 2,100 1,648 Climbing Boston Center
Sun 10:28:44 AM 43.0553 -76.2275 222° Southwest 244 281 3,900 1,871 Climbing Boston Center
Sun 10:29:10 AM 43.0356 -76.2467 215° Southwest 229 264 5,000 2,727 Climbing Boston Center
Sun 10:30:12 AM 42.9714 -76.3003 211° Southwest 266 306 7,900 2,439 Climbing Boston Center
Sun 10:31:13 AM 42.9056 -76.3547 211° Southwest 273 314 10,000 1,463 Climbing Boston Center
Sun 10:32:15 AM 42.8231 -76.4250 212° Southwest 348 400 10,900 1,854 Climbing Boston Center
Sun 10:33:16 AM 42.7297 -76.5028 211° Southwest 360 414 13,800 2,488 Climbing Boston Center
Sun 10:34:18 AM 42.6389 -76.5781 211° Southwest 375 432 16,000 2,098 Climbing Boston Center
Sun 10:35:19 AM 42.5431 -76.6581 212° Southwest 399 459 18,100 2,000 Climbing Boston Center
Sun 10:36:21 AM 42.4442 -76.7392 211° Southwest 411 473 20,100 1,951 Climbing Boston Center
Sun 10:37:22 AM 42.3425 -76.8228 211° Southwest 419 482 22,100 1,415 Climbing Boston Center
Sun 10:38:24 AM 42.2397 -76.9067 211° Southwest 425 489 23,000 439 Climbing Boston Center
Sun 10:39:25 AM 42.1142 -77.0025 210° Southwest 429 494 23,000 537 Level Boston Center
Sun 10:40:27 AM 41.9922 -76.9928 177° South 442 509 24,100 1,065 Climbing Boston Center
Sun 10:41:29 AM 41.8669 -76.9506 166° South 458 527 25,200 1,122 Climbing Boston Center
Sun 10:42:30 AM 41.7378 -76.9086 166° South 476 548 26,400 1,366 Climbing Boston Center
Sun 10:43:32 AM 41.5978 -76.8619 166° South 477 549 28,000 711 Climbing Boston Center
Sun 10:44:45 AM 41.4386 -76.8122 167° South 484 557 28,000  Level New York Center
Sun 10:45:46 AM 41.3061 -76.7919 173° South 484 557 28,000 700 Level New York Center
Sun 10:46:45 AM 41.1775 -76.8219 190° South 467 537 29,400 1,240 Climbing New York Center
Sun 10:47:47 AM 41.0528 -76.8603 193° South 467 537 30,500 1,100 Climbing New York Center
Sun 10:48:45 AM 40.9281 -76.8958 192° South 467 537 31,600 756 Climbing New York Center
Sun 10:49:46 AM 40.8031 -76.9314 192° South 467 537 32,000 198 Climbing New York Center
Sun 10:50:46 AM 40.6783 -76.9667 192° South 467 537 32,000  Level New York Center
Sun 10:51:46 AM 40.5536 -77.0017 192° South 467 537 32,000  Level New York Center
Sun 10:52:45 AM 40.4264 -77.0394 193° South 467 537 32,000  Level New York Center
Sun 10:53:46 AM 40.3094 -77.0858 197° South 467 537 32,000  Level New York Center
Sun 10:54:45 AM 40.1914 -77.1458 201° Southwest 457 526 32,000  Level New York Center
Sun 10:55:46 AM 40.0867 -77.1961 200° South 452 520 32,000  Level New York Center
Sun 10:56:47 AM 39.9711 -77.2506 200° South 452 520 32,000  Level New York Center
Sun 10:58:36 AM 39.7528 -77.3539 200° South 465 535 32,000  Level Washington Center
Sun 10:59:37 AM 39.6353 -77.4103 200° South 465 535 32,000  Level Washington Center
Sun 11:00:37 AM 39.5158 -77.4664 200° South 460 529 32,000  Level Washington Center
Sun 11:01:37 AM 39.3983 -77.5200 199° South 455 524 32,000  Level Washington Center
Sun 11:02:35 AM 39.2828 -77.5758 201° Southwest 449 517 32,000  Level Washington Center
Sun 11:03:36 AM 39.1650 -77.6289 199° South 449 517 32,000  Level Washington Center
Sun 11:04:37 AM 39.0347 -77.6867 199° South 449 517 32,000  Level Washington Center
Sun 11:05:35 AM 38.9317 -77.7372 201° Southwest 449 517 32,000  Level Washington Center
Sun 11:06:35 AM 38.8036 -77.7919 198° South 444 511 32,000  Level Washington Center
Sun 11:07:36 AM 38.6836 -77.8522 201° Southwest 455 524 32,000  Level Washington Center
Sun 11:08:36 AM 38.5722 -77.9019 199° South 450 518 32,000  Level Washington Center
Sun 11:09:34 AM 38.4522 -77.9567 200° South 445 512 32,000  Level Washington Center
Sun 11:10:36 AM 38.3408 -78.0086 200° South 450 518 32,000  Level Washington Center
Sun 11:11:37 AM 38.2231 -78.0603 199° South 450 518 32,000  Level Washington Center
Sun 11:12:37 AM 38.1050 -78.1144 200° South 450 518 32,000  Level Washington Center
Sun 11:13:38 AM 37.9914 -78.1661 200° South 445 512 32,000  Level Washington Center
Sun 11:14:36 AM 37.8792 -78.2383 207° Southwest 445 512 32,000  Level Washington Center
Sun 11:15:37 AM 37.7733 -78.3108 208° Southwest 445 512 32,000  Level Washington Center
Sun 11:16:37 AM 37.6653 -78.3806 207° Southwest 439 505 32,000  Level Washington Center
Sun 11:17:37 AM 37.5594 -78.4500 207° Southwest 439 505 32,000  Level Washington Center
Sun 11:18:35 AM 37.4472 -78.5217 207° Southwest 444 511 32,000  Level Washington Center
Sun 11:19:36 AM 37.3517 -78.5858 208° Southwest 444 511 32,000  Level Washington Center
Sun 11:20:36 AM 37.2331 -78.6594 206° Southwest 437 503 32,000  Level Washington Center
Sun 11:21:37 AM 37.1333 -78.7233 207° Southwest 442 509 32,000  Level Washington Center
Sun 11:22:37 AM 37.0144 -78.7992 207° Southwest 442 509 32,000  Level Washington Center
Sun 11:23:37 AM 36.9167 -78.8625 207° Southwest 442 509 32,000  Level Washington Center
Sun 11:24:35 AM 36.7956 -78.9406 207° Southwest 442 509 32,000  Level Washington Center
Sun 11:25:36 AM 36.6981 -78.9958 204° Southwest 442 509 32,000  Level Washington Center
Sun 11:26:37 AM 36.5586 -78.9897 178° South 436 502 32,000  Level Washington Center
Sun 11:27:35 AM 36.4325 -78.9508 166° South 450 518 32,000  Level Washington Center
Sun 11:28:36 AM 36.3061 -78.9144 167° South 461 531 32,000  Level Washington Center
Sun 11:29:37 AM 36.1778 -78.8756 166° South 466 536 32,000  Level Washington Center
Sun 11:30:35 AM 36.0517 -78.8394 167° South 466 536 32,000  Level Washington Center
Sun 11:31:36 AM 35.9219 -78.8469 183° South 460 529 32,000  Level Washington Center
Sun 11:32:36 AM 35.8133 -78.9244 210° Southwest 436 502 32,000  Level Washington Center
Sun 11:33:37 AM 35.7047 -79.0042 211° Southwest 441 507 32,000  Level Washington Center
Sun 11:34:35 AM 35.6003 -79.0814 211° Southwest 447 514 32,000  Level Washington Center
Sun 11:35:36 AM 35.5064 -79.1489 210° Southwest 447 514 32,000  Level Washington Center
Sun 11:36:36 AM 35.3869 -79.2353 211° Southwest 452 520 32,000  Level Washington Center
Sun 11:37:37 AM 35.2889 -79.3047 210° Southwest 452 520 32,000  Level Washington Center
Sun 11:38:37 AM 35.1800 -79.3833 211° Southwest 457 526 32,000  Level Washington Center
Sun 11:39:35 AM 35.0753 -79.4597 211° Southwest 457 526 32,000  Level Washington Center
Sun 11:42:03 AM 34.7942 -79.6567 210° Southwest 453 521 32,000  Level Jacksonville Center
Sun 11:43:03 AM 34.6878 -79.7339 211° Southwest 453 521 32,000  Level Jacksonville Center
Sun 11:44:03 AM 34.5792 -79.8111 210° Southwest 453 521 32,000 -50 Level Jacksonville Center
Sun 11:45:03 AM 34.4889 -79.8822 213° Southwest 453 521 31,900 -50 Descending Jacksonville Center
Sun 11:46:03 AM 34.3781 -79.9567 209° Southwest 448 516 31,900  Level Jacksonville Center
Sun 11:47:03 AM 34.2714 -80.0306 210° Southwest 448 516 31,900  Level Jacksonville Center
Sun 11:48:03 AM 34.1625 -80.1094 211° Southwest 448 516 31,900  Level Jacksonville Center
Sun 11:49:03 AM 34.0514 -80.1856 210° Southwest 455 524 31,900  Level Jacksonville Center
Sun 11:50:03 AM 33.9425 -80.2617 210° Southwest 455 524 31,900  Level Jacksonville Center
Sun 11:51:03 AM 33.8356 -80.3372 210° Southwest 455 524 31,900  Level Jacksonville Center
Sun 11:52:03 AM 33.7244 -80.4156 210° Southwest 455 524 31,900  Level Jacksonville Center
Sun 11:53:03 AM 33.6153 -80.4908 210° Southwest 455 524 31,900  Level Jacksonville Center
Sun 11:54:03 AM 33.5042 -80.5686 210° Southwest 455 524 31,900  Level Jacksonville Center
Sun 11:55:03 AM 33.3969 -80.6436 210° Southwest 455 524 31,900  Level Jacksonville Center
Sun 11:56:03 AM 33.2856 -80.7183 209° Southwest 455 524 31,900  Level Jacksonville Center
Sun 11:57:03 AM 33.1761 -80.7931 210° Southwest 455 524 31,900  Level Jacksonville Center
Sun 11:58:03 AM 33.0544 -80.8825 212° Southwest 455 524 31,900  Level Jacksonville Center
Sun 11:59:03 AM 32.9536 -80.9714 216° Southwest 466 536 31,900  Level Jacksonville Center
Sun 12:00:03 PM 32.8506 -81.0628 217° Southwest 466 536 31,900  Level Jacksonville Center
Sun 12:01:03 PM 32.7539 -81.1586 220° Southwest 472 543 31,900 50 Level Jacksonville Center
Sun 12:02:03 PM 32.6528 -81.2517 218° Southwest 466 536 32,000 50 Climbing Jacksonville Center
Sun 12:03:03 PM 32.5492 -81.3128 206° Southwest 466 536 32,000  Level Jacksonville Center
Sun 12:04:03 PM 32.4228 -81.3914 208° Southwest 466 536 32,000  Level Jacksonville Center
Sun 12:05:03 PM 32.3108 -81.4619 208° Southwest 466 536 32,000  Level Jacksonville Center
Sun 12:06:03 PM 32.1947 -81.5325 207° Southwest 466 536 32,000  Level Jacksonville Center
Sun 12:07:03 PM 32.0806 -81.6028 208° Southwest 458 527 32,000  Level Jacksonville Center
Sun 12:08:03 PM 31.9703 -81.6461 198° South 467 537 32,000  Level Jacksonville Center
Sun 12:09:03 PM 31.8331 -81.6869 194° South 468 539 32,000  Level Jacksonville Center
Sun 12:10:03 PM 31.7206 -81.7228 195° South 467 537 32,000  Level Jacksonville Center
Sun 12:11:03 PM 31.5831 -81.7658 195° South 473 544 32,000  Level Jacksonville Center
Sun 12:12:03 PM 31.4561 -81.8039 194° South 473 544 32,000 -50 Level Jacksonville Center
Sun 12:13:03 PM 31.3311 -81.8394 194° South 473 544 31,900 -50 Descending Jacksonville Center
Sun 12:14:03 PM 31.2083 -81.8772 195° South 468 539 31,900  Level Jacksonville Center
Sun 12:15:03 PM 31.0833 -81.9175 195° South 468 539 31,900  Level Jacksonville Center
Sun 12:16:03 PM 30.9583 -81.9550 194° South 468 539 31,900  Level Jacksonville Center
Sun 12:17:03 PM 30.8311 -81.9903 193° South 468 539 31,900  Level Jacksonville Center
Sun 12:18:03 PM 30.7061 -82.0300 195° South 468 539 31,900  Level Jacksonville Center
Sun 12:19:03 PM 30.5811 -82.0672 194° South 473 544 31,900  Level Jacksonville Center
Sun 12:20:03 PM 30.4708 -82.0972 193° South 467 537 31,900  Level Jacksonville Center
Sun 12:21:03 PM 30.3456 -82.1319 193° South 467 537 31,900  Level Jacksonville Center
Sun 12:22:03 PM 30.2228 -82.1714 196° South 467 537 31,900  Level Jacksonville Center
Sun 12:23:03 PM 30.0997 -82.2058 194° South 467 537 31,900  Level Jacksonville Center
Sun 12:24:03 PM 29.9622 -82.2500 196° South 467 537 31,900 -200 Level Jacksonville Center
Sun 12:25:03 PM 29.8369 -82.2867 194° South 467 537 31,500 -1,200 Descending Jacksonville Center
Sun 12:26:03 PM 29.7286 -82.3161 193° South 467 537 29,500 -2,100 Descending Jacksonville Center
Sun 12:27:03 PM 29.5972 -82.3528 194° South 467 537 27,300 -1,800 Descending Jacksonville Center
Sun 12:28:03 PM 29.4636 -82.3464 178° South 473 544 25,900 -1,300 Descending Jacksonville Center
Sun 12:29:03 PM 29.3406 -82.3303 173° South 465 535 24,700 -2,000 Descending Jacksonville Center
Sun 12:30:03 PM 29.2150 -82.3144 174° South 459 528 21,900 -2,800 Descending Jacksonville Center
Sun 12:31:03 PM 29.0897 -82.3008 175° South 459 528 19,100 -2,800 Descending Jacksonville Center
Sun 12:32:03 PM 28.9708 -82.2875 174° South 453 521 16,300 -2,800 Descending Jacksonville Center
Sun 12:33:03 PM 28.8517 -82.2714 173° South 442 509 13,500 -1,193 Descending Jacksonville Center
Sun 12:35:04 PM 28.6489 -82.2575 177° South 350 403 12,700 -525 Descending Miami Center
Sun 12:36:06 PM 28.5731 -82.2972 205° Southwest 326 375 11,900 -756 Descending Miami Center
Sun 12:37:19 PM 28.5167 -82.4167 242° Southwest 316 364 11,000 -691 Descending Tampa TRACON
Sun 12:38:25 PM 28.4667 -82.5167 240° Southwest 313 360 10,300 -992 Descending Tampa TRACON
Sun 12:39:26 PM 28.4000 -82.5833 221° Southwest 313 360 8,900 -1,309 Descending Tampa TRACON
Sun 12:40:15 PM 28.3544 -82.6147 211° Southwest 312 359 7,900 -1,286 Descending Miami Center
Sun 12:41:18 PM 28.2875 -82.6656 214° Southwest 298 343 6,500 -1,392 Descending Miami Center
Sun 12:42:20 PM 28.1961 -82.6897 193° South 286 329 5,000 -1,161 Descending Miami Center
Sun 12:43:22 PM 28.1206 -82.7119 195° South 285 328 4,100 -484 Descending Miami Center
Sun 12:44:24 PM 28.0475 -82.7311 193° South 277 319 4,000 -290 Descending Miami Center
Sun 12:45:26 PM 27.9667 -82.7500 192° South 262 302 3,500 -656 Descending Tampa TRACON
Sun 12:46:32 PM 27.9000 -82.7500 180° South 205 236 2,600 -650 Descending Tampa TRACON
Sun 12:47:26 PM 27.8500 -82.7500 180° South 190 219 2,200 -632 Descending Tampa TRACON
Sun 12:48:26 PM 27.8167 -82.7000 127° Southeast 198 228 1,400 -762 Descending Tampa TRACON
Sun 12:49:32 PM 27.8667 -82.6833 16° North 153 176 600 -727 Descending Tampa TRACON
Sun 12:52:00 PM 27.9000 -82.6833 310° West  Level FlightAware Approximate

Login

Don't have an account? Register now (free) for customized features, flight alerts, and more!